KPOE/POE METAR and TAF weather

Enter ICAO airport designator
Station Type Date Time Source
KPOE METAR 2019/06/18 16:58 UTC NOAA

KPOE 181658Z AUTO 26006KT 10SM FEW029 30/21 A2994 RMK AO2 SLP137 T02980211


Station Type Date Time Source
KPOE Decoded METAR 2019/06/18 16:58 UTC NOAA

Fort Polk, Polk AAF Ft Polk, LA, United States (KPOE) 31-03N 093-11-38W
Jun 18, 2019 - 12:58 PM EDT / 2019.06.18 1658 UTC
Wind: from the W (260 degrees) at 7 MPH (6 KT):0
Visibility: 10 mile(s):0
Sky conditions: mostly clear
Temperature: 85.6 F (29.8 C)
Dew Point: 70.0 F (21.1 C)
Relative Humidity: 59%
Pressure (altimeter): 29.94 in. Hg (1013 hPa)
ob: KPOE 181658Z AUTO 26006KT 10SM FEW029 30/21 A2994 RMK AO2 SLP137 T02980211
cycle: 17

Station Type Date Time Source
KPOE TAF 2019/06/18 16:15 UTC NOAA

TAF KPOE 181600Z 1816/1922 24009KT 9999 FEW025 QNH2980INS
BECMG 1817/1818 24009KT 9999 BKN030 QNH2980INS
BECMG 1902/1903 21006KT 9999 FEW030 QNH2982INS
BECMG 1908/1909 VRB06KT 8000 BR SCT015 QNH2984INS
BECMG 1914/1915 21009KT 9999 NSW FEW030 QNH2974INS TX32/1821Z TN22/1912Z

Example: see airport list